ADDS METAR Data INFO
IDs: Format: Raw Decoded Include TAF

Data at: 1132 UTC 29 May 2017

KCRP 291051Z COR 14006KT 9SM -TSRA FEW009 FEW025CB SCT100 OVC130 22/21 A2990 RMK AO2 LTG DSNT ALQDS SLP122 FRQ LTGICCCCG VC SW-NW DSNT NE-SE TS VC SW-NW MOV NE CB DSNT NE-SE MOV NE P0008 T02170211 $
KCRP 290951Z 20010KT 9SM -TSRA FEW009 FEW025CB OVC110 21/21 A2989 RMK AO2 LTG DSNT ALQDS SLP119 CONS LTGICCCCG VC ALQDS TS VC ALQDS MOV NE P0007 T02110206 $
KCRP 290851Z COR 25012KT 4SM +TSRA BR FEW009 SCT027CB OVC060 21/21 A2994 RMK AO2 PK WND 36040/0756 LTG DSNT ALQDS SLP137 CONS LTGICCCCG OHD-ALQDS TS OHD-ALQDS MOV NE P0045 60167 T02110206 53000
KCRP 290824Z 32018G27KT 2SM +TSRA BR FEW009 SCT017CB OVC029 21/20 A2998 RMK AO2 PK WND 36040/0756 WSHFT 0738 LTG DSNT ALQDS PRESRR CONS LTGICCCCG OHD-ALQDS TS OHD-ALQDS MOV NE P0027 T02060200
KCRP 290751Z 35028G36KT 1SM R13/1800V4500FT +TSRA BR FEW009 SCT017CB OVC024 21/21 A2991 RMK AO2 PK WND 31038/0735 WSHFT 0723 LTG DSNT ALQDS SLP126 CONS LTGICCCCG OHD-ALQDS TS OHD-ALQDS MOV NE P0105 T02060206
KCRP 290745Z 33029G36KT 1SM R13/2000V4500FT +TSRA BR SCT009 SCT017CB OVC024 21/21 A2995 RMK AO2 PK WND 31038/0735 WSHFT 0723 LTG DSNT ALQDS CONS LTGICCCCG OHD-ALQDS TS OHD-ALQDS MOV N P0075
KCRP 290737Z COR 32020G38KT 280V350 1SM R13/4000VP6000FT +TSRA BR BKN009 BKN015CB OVC029 22/21 A2996 RMK AO2 PK WND 31038/0735 WSHFT 0723 LTG DSNT ALQDS PRESRR CONS LTGICCCCG OHD-ALQDS TS OHD-ALQDS MOV N P0041 T02220211
KCRP 290716Z 15019G28KT 5SM +TSRA BR BKN009 BKN026CB OVC048 25/24 A2990 RMK AO2 PK WND 15028/0716 LTG DSNT ALQDS CONS LTGICCCCG OHD-ALQDS TS OHD-ALQDS MOV N P0019 T02500244
KCRP 290702Z 11009KT 5SM TSRA BR FEW009 BKN026CB OVC048 27/26 A2989 RMK AO2 LTG DSNT ALQDS CONS LTGICCCCG OHD-ALQDS TS OHD-ALQDS MOV N P0007 T02670261
KCRP 290651Z 10009KT 6SM TSRA BR FEW013 FEW029CB OVC048 27/26 A2989 RMK AO2 LTG DSNT ALQDS SLP121 CONS LTGICCCCG OHD-ALQDS TS OHD-ALQDS MOV N P0017 T02670261
KCRP 290639Z 08010KT 6SM +TSRA BR FEW013 SCT029CB OVC048 27/26 A2988 RMK AO2 LTG DSNT ALQDS PRESFR CONS LTGICCCCG OHD-ALQDS TS OHD-ALQDS MOV N P0009 T02670261
KCRP 290551Z 09010KT 10SM -TSRA SCT013CB BKN022 OVC038 27/26 A2994 RMK AO2 LTG DSNT ALQDS TSB29 SLP137 FRQ LTGICCC VC S-W-N TS VC S-W-N MOV E P0001 60001 T02720261 10294 20267 403220256 50022
KCRP 290529Z 09008KT 10SM -TSRA FEW014CB BKN028 OVC037 27/26 A2997 RMK AO2 LTG DSNT ALQDS TSB29 FRQ LTGICCC VC SW-NW TS VC SW-NW MOV E P0000 T02720256
KCRP 290520Z 09009KT 10SM -RA SCT014 BKN028 OVC110 28/26 A2996 RMK AO2 LTG DSNT NE AND SW AND NW OCNL LTGIC DSNT W-NW CB DSNT W-NW MOV E P0000 T02780256
KCRP 290451Z 06008KT 10SM -RA SCT011 SCT022 BKN030 OVC150 28/26 A2996 RMK AO2 LTG DSNT W AND NW RAB50 SLP145 OCNL LTGIC DSNT W-NW CB DSNT W-NW MOV E P0000 T02780256
KCRP 290351Z 09007KT 10SM SCT013 BKN020 BKN025 OVC250 28/25 A2993 RMK AO2 PRESRR SLP134 OCNL LTGIC DSNT W-NW CB DSNT W-NW MOV E T02780250
KCRP 290251Z 10004KT 10SM BKN011 BKN018 OVC250 27/26 A2988 RMK AO2 SLP115 T02670256 53024
KCRP 290226Z 16005KT 10SM BKN012 BKN015 OVC250 27/26 A2986 RMK AO2 T02720256
KCRP 290151Z 14008KT 10SM FEW012 FEW015 BKN250 27/25 A2982 RMK AO2 SLP097 T02720250
KCRP 290051Z 13012KT 10SM FEW015 FEW019 BKN250 28/25 A2981 RMK AO2 SLP093 T02780250
KCRP 282351Z 13014G20KT 10SM FEW016 SCT019 BKN250 29/25 A2980 RMK AO2 PK WND 13026/2304 SLP091 T02940250 10317 20289 55020
KCRP 282251Z 14015G26KT 10SM FEW017 BKN020 BKN028 BKN250 31/26 A2979 RMK AO2 PK WND 13026/2232 SLP085 T03060256
KCRP 282151Z 12020G25KT 10SM FEW018 BKN020 BKN030 OVC250 31/25 A2984 RMK AO2 SLP103 T03060250
KCRP 282051Z 11015G23KT 10SM SCT019 BKN028 BKN040 OVC250 30/26 A2986 RMK AO2 SLP111 T03000256 58003
KCRP 281951Z 09019G23KT 10SM SCT021 BKN028 BKN045 OVC250 31/26 A2988 RMK AO2 SLP116 T03060261
KCRP 281851Z 12017KT 10SM SCT022 BKN033 BKN042 OVC200 32/26 A2988 RMK AO2 SLP118 T03170256
KCRP 281751Z 14014KT 10SM SCT025 SCT037 BKN200 OVC250 31/26 A2987 RMK AO2 SLP114 T03060256 10322 20256 52001
KCRP 281651Z 14011KT 10SM SCT025 SCT038 BKN200 OVC250 32/26 A2987 RMK AO2 SLP115 T03170261
KCRP 281551Z 15011KT 9SM SCT024 BKN030 BKN040 BKN250 31/26 A2987 RMK AO2 SLP113 T03110256
KCRP 281532Z 15011KT 9SM FEW018 SCT028 SCT035 BKN250 31/26 A2986 RMK AO2 T03060261
KCRP 281451Z 17006KT 8SM FEW014 BKN019 BKN028 BKN250 29/26 A2987 RMK AO2 SLP113 T02940256 51024
KCRP 281351Z 14006KT 6SM BR SCT013 BKN019 BKN250 28/26 A2985 RMK AO2 SLP106 T02780261
KCRP 281251Z 16007KT 5SM BR BKN017 BKN250 27/26 A2982 RMK AO2 SLP097 T02670256
KCRP 281151Z 17007KT 6SM BR BKN017 BKN250 26/25 A2980 RMK AO2 SLP089 T02560250 10272 20256 55001
KCRP 281135Z 18006KT 10SM BKN017 BKN250 26/25 A2980 RMK AO2 T02560250
KCRP 281112Z 18007KT 10SM FEW017 SCT250 26/26 A2979 RMK AO2 T02560256
KCRP 281051Z 16009KT 10SM BKN017 BKN250 26/26 A2978 RMK AO2 SLP081 T02560256
KCRP 281012Z 17010KT 10SM BKN020 BKN250 26/26 A2977 RMK AO2 BKN020 V SCT T02610256
KCRP 280951Z 16010KT 10SM SCT018 BKN250 26/25 A2977 RMK AO2 SLP079 T02610250
KCRP 280851Z 17007KT 10SM FEW018 BKN021 OVC250 27/25 A2980 RMK AO2 SLP090 T02670250 58024
KCRP 280751Z 17009KT 10SM SCT016 BKN020 BKN250 27/25 A2984 RMK AO2 SLP102 T02720250
KCRP 280651Z 18009KT 10SM FEW012 BKN015 BKN020 OVC200 27/25 A2987 RMK AO2 SLP113 T02720250
KCRP 280551Z 17012KT 10SM FEW009 BKN012 OVC025 27/26 A2987 RMK AO2 SLP114 T02720256 10289 20267 403220261 51010
KCRP 280451Z 16012KT 10SM FEW008 BKN010 OVC250 27/26 A2986 RMK AO2 SLP110 T02670256
KCRP 280351Z 16012KT 10SM FEW008 BKN010 BKN015 OVC250 27/26 A2986 RMK AO2 SLP111 T02720256
KCRP 280251Z 15012KT 10SM FEW008 BKN010 BKN015 OVC250 27/26 A2984 RMK AO2 SLP104 T02670256 53012
KCRP 280151Z 14012KT 10SM SCT010 BKN013 OVC250 27/26 A2983 RMK AO2 SLP101 T02720256
KCRP 280145Z 14009KT 10SM SCT010 BKN013 OVC250 27/26 A2983 RMK AO2
KCRP 280051Z 14014KT 10SM FEW013 SCT016 BKN200 OVC250 28/25 A2981 RMK AO2 SLP094 T02780250
KCRP 272351Z 14015G22KT 10SM FEW020 SCT200 BKN250 29/25 A2981 RMK AO2 PK WND 14027/2256 SLP092 T02890250 10322 20289 55008


Page loaded:  11:32 UTC  |   04:32 AM Pacific  |   05:32 AM Mountain  |   06:32 AM Central  |   07:32 AM Eastern

 

ADVISORIES

FORECASTS

FORECASTS

OBSERVATIONS

USER TOOLS

ABOUT US